sensor_id;sensor_type;location;lat;lon;timestamp;P1;durP1;ratioP1;P2;durP2;ratioP2
24407;SDS011;12542;50.924;4.516;2024-02-14T00:01:04;5.20;;;3.00;;
24407;SDS011;12542;50.924;4.516;2024-02-14T00:03:31;5.00;;;3.00;;
24407;SDS011;12542;50.924;4.516;2024-02-14T00:05:56;4.38;;;2.80;;
24407;SDS011;12542;50.924;4.516;2024-02-14T00:08:22;6.10;;;3.30;;
24407;SDS011;12542;50.924;4.516;2024-02-14T00:10:48;6.53;;;2.75;;
24407;SDS011;12542;50.924;4.516;2024-02-14T00:13:14;4.75;;;2.80;;
24407;SDS011;12542;50.924;4.516;2024-02-14T00:15:40;5.57;;;2.67;;
24407;SDS011;12542;50.924;4.516;2024-02-14T00:18:06;10.43;;;3.20;;
24407;SDS011;12542;50.924;4.516;2024-02-14T00:20:32;5.72;;;3.17;;
24407;SDS011;12542;50.924;4.516;2024-02-14T00:22:58;5.53;;;3.05;;
24407;SDS011;12542;50.924;4.516;2024-02-14T00:25:24;9.15;;;3.55;;
24407;SDS011;12542;50.924;4.516;2024-02-14T00:27:49;6.50;;;2.95;;
24407;SDS011;12542;50.924;4.516;2024-02-14T00:30:15;6.93;;;2.80;;
24407;SDS011;12542;50.924;4.516;2024-02-14T00:32:41;5.30;;;3.50;;
24407;SDS011;12542;50.924;4.516;2024-02-14T00:35:06;6.05;;;3.15;;
24407;SDS011;12542;50.924;4.516;2024-02-14T00:37:32;6.07;;;3.50;;
24407;SDS011;12542;50.924;4.516;2024-02-14T00:39:59;5.63;;;2.80;;
24407;SDS011;12542;50.924;4.516;2024-02-14T00:42:25;5.10;;;3.08;;
24407;SDS011;12542;50.924;4.516;2024-02-14T00:44:50;5.13;;;3.10;;
24407;SDS011;12542;50.924;4.516;2024-02-14T00:47:21;4.95;;;3.05;;
24407;SDS011;12542;50.924;4.516;2024-02-14T00:49:47;10.45;;;3.35;;
24407;SDS011;12542;50.924;4.516;2024-02-14T00:52:12;6.43;;;2.50;;
24407;SDS011;12542;50.924;4.516;2024-02-14T00:54:39;7.05;;;3.53;;
24407;SDS011;12542;50.924;4.516;2024-02-14T00:57:05;6.45;;;2.88;;
24407;SDS011;12542;50.924;4.516;2024-02-14T00:59:30;4.40;;;2.65;;
24407;SDS011;12542;50.924;4.516;2024-02-14T01:01:56;5.35;;;3.45;;
24407;SDS011;12542;50.924;4.516;2024-02-14T01:04:22;8.27;;;2.80;;
24407;SDS011;12542;50.924;4.516;2024-02-14T01:06:47;9.05;;;3.33;;
24407;SDS011;12542;50.924;4.516;2024-02-14T01:09:14;5.55;;;2.70;;
24407;SDS011;12542;50.924;4.516;2024-02-14T01:11:41;9.20;;;3.30;;
24407;SDS011;12542;50.924;4.516;2024-02-14T01:14:07;8.05;;;3.30;;
24407;SDS011;12542;50.924;4.516;2024-02-14T01:16:33;7.53;;;3.33;;
24407;SDS011;12542;50.924;4.516;2024-02-14T01:18:59;6.03;;;3.00;;
24407;SDS011;12542;50.924;4.516;2024-02-14T01:21:25;6.20;;;3.28;;
24407;SDS011;12542;50.924;4.516;2024-02-14T01:23:50;6.35;;;3.17;;
24407;SDS011;12542;50.924;4.516;2024-02-14T01:26:17;6.30;;;3.28;;
24407;SDS011;12542;50.924;4.516;2024-02-14T01:28:42;6.88;;;3.70;;
24407;SDS011;12542;50.924;4.516;2024-02-14T01:31:09;6.50;;;3.55;;
24407;SDS011;12542;50.924;4.516;2024-02-14T01:33:37;7.25;;;3.58;;
24407;SDS011;12542;50.924;4.516;2024-02-14T01:36:02;8.13;;;3.47;;
24407;SDS011;12542;50.924;4.516;2024-02-14T01:38:28;5.18;;;3.47;;
24407;SDS011;12542;50.924;4.516;2024-02-14T01:40:54;7.90;;;3.42;;
24407;SDS011;12542;50.924;4.516;2024-02-14T01:43:20;7.95;;;3.88;;
24407;SDS011;12542;50.924;4.516;2024-02-14T01:45:46;6.82;;;3.58;;
24407;SDS011;12542;50.924;4.516;2024-02-14T01:48:11;6.97;;;3.60;;
24407;SDS011;12542;50.924;4.516;2024-02-14T01:50:37;6.93;;;3.33;;
24407;SDS011;12542;50.924;4.516;2024-02-14T01:53:05;6.97;;;3.85;;
24407;SDS011;12542;50.924;4.516;2024-02-14T01:55:32;8.80;;;4.50;;
24407;SDS011;12542;50.924;4.516;2024-02-14T01:57:59;8.10;;;4.20;;
24407;SDS011;12542;50.924;4.516;2024-02-14T02:00:25;8.38;;;3.75;;
24407;SDS011;12542;50.924;4.516;2024-02-14T02:02:52;6.32;;;3.47;;
24407;SDS011;12542;50.924;4.516;2024-02-14T02:05:20;7.60;;;4.22;;
24407;SDS011;12542;50.924;4.516;2024-02-14T02:07:46;6.57;;;3.80;;
24407;SDS011;12542;50.924;4.516;2024-02-14T02:10:13;9.65;;;4.75;;
24407;SDS011;12542;50.924;4.516;2024-02-14T02:12:39;11.52;;;4.75;;
24407;SDS011;12542;50.924;4.516;2024-02-14T02:15:08;7.60;;;3.78;;
24407;SDS011;12542;50.924;4.516;2024-02-14T02:17:40;8.45;;;4.18;;
24407;SDS011;12542;50.924;4.516;2024-02-14T02:20:07;8.40;;;4.10;;
24407;SDS011;12542;50.924;4.516;2024-02-14T02:22:34;8.75;;;4.07;;
24407;SDS011;12542;50.924;4.516;2024-02-14T02:25:03;11.43;;;4.88;;
24407;SDS011;12542;50.924;4.516;2024-02-14T02:27:32;6.78;;;4.20;;
24407;SDS011;12542;50.924;4.516;2024-02-14T02:30:00;10.65;;;3.90;;
24407;SDS011;12542;50.924;4.516;2024-02-14T02:32:26;7.85;;;4.32;;
24407;SDS011;12542;50.924;4.516;2024-02-14T02:34:52;10.68;;;4.53;;
24407;SDS011;12542;50.924;4.516;2024-02-14T02:37:18;10.85;;;4.40;;
24407;SDS011;12542;50.924;4.516;2024-02-14T02:39:44;8.75;;;5.05;;
24407;SDS011;12542;50.924;4.516;2024-02-14T02:42:10;7.85;;;4.15;;
24407;SDS011;12542;50.924;4.516;2024-02-14T02:44:37;13.05;;;4.57;;
24407;SDS011;12542;50.924;4.516;2024-02-14T02:47:04;11.73;;;4.32;;
24407;SDS011;12542;50.924;4.516;2024-02-14T02:49:29;11.15;;;4.40;;
24407;SDS011;12542;50.924;4.516;2024-02-14T02:51:55;9.23;;;4.47;;
24407;SDS011;12542;50.924;4.516;2024-02-14T02:54:21;7.28;;;4.38;;
24407;SDS011;12542;50.924;4.516;2024-02-14T02:56:48;8.07;;;4.60;;
24407;SDS011;12542;50.924;4.516;2024-02-14T02:59:15;9.73;;;5.25;;
24407;SDS011;12542;50.924;4.516;2024-02-14T03:01:42;12.60;;;5.10;;
24407;SDS011;12542;50.924;4.516;2024-02-14T03:04:07;8.95;;;4.90;;
24407;SDS011;12542;50.924;4.516;2024-02-14T03:06:33;12.75;;;5.30;;
24407;SDS011;12542;50.924;4.516;2024-02-14T03:08:59;14.45;;;5.63;;
24407;SDS011;12542;50.924;4.516;2024-02-14T03:11:25;11.35;;;5.57;;
24407;SDS011;12542;50.924;4.516;2024-02-14T03:13:51;12.48;;;5.28;;
24407;SDS011;12542;50.924;4.516;2024-02-14T03:16:17;11.48;;;5.15;;
24407;SDS011;12542;50.924;4.516;2024-02-14T03:18:43;10.93;;;5.40;;
24407;SDS011;12542;50.924;4.516;2024-02-14T03:21:09;14.05;;;6.28;;
24407;SDS011;12542;50.924;4.516;2024-02-14T03:23:37;12.35;;;5.70;;
24407;SDS011;12542;50.924;4.516;2024-02-14T03:26:02;11.48;;;6.43;;
24407;SDS011;12542;50.924;4.516;2024-02-14T03:28:32;11.25;;;6.63;;
24407;SDS011;12542;50.924;4.516;2024-02-14T03:30:58;12.13;;;6.00;;
24407;SDS011;12542;50.924;4.516;2024-02-14T03:33:24;12.20;;;6.72;;
24407;SDS011;12542;50.924;4.516;2024-02-14T03:35:49;10.85;;;6.05;;
24407;SDS011;12542;50.924;4.516;2024-02-14T03:38:27;14.88;;;7.32;;
24407;SDS011;12542;50.924;4.516;2024-02-14T03:40:54;11.98;;;6.32;;
24407;SDS011;12542;50.924;4.516;2024-02-14T03:43:20;10.95;;;6.10;;
24407;SDS011;12542;50.924;4.516;2024-02-14T03:45:48;13.23;;;6.35;;
24407;SDS011;12542;50.924;4.516;2024-02-14T03:48:14;13.73;;;6.38;;
24407;SDS011;12542;50.924;4.516;2024-02-14T03:50:40;12.20;;;6.55;;
24407;SDS011;12542;50.924;4.516;2024-02-14T03:53:08;13.45;;;7.07;;
24407;SDS011;12542;50.924;4.516;2024-02-14T03:55:36;14.05;;;6.68;;
24407;SDS011;12542;50.924;4.516;2024-02-14T03:58:02;15.35;;;7.30;;
24407;SDS011;12542;50.924;4.516;2024-02-14T04:00:30;12.35;;;6.82;;
24407;SDS011;12542;50.924;4.516;2024-02-14T04:02:56;13.63;;;8.18;;
24407;SDS011;12542;50.924;4.516;2024-02-14T04:05:27;16.73;;;8.00;;
24407;SDS011;12542;50.924;4.516;2024-02-14T04:07:56;12.68;;;7.40;;
24407;SDS011;12542;50.924;4.516;2024-02-14T04:10:21;12.85;;;6.05;;
24407;SDS011;12542;50.924;4.516;2024-02-14T04:12:49;13.63;;;6.75;;
24407;SDS011;12542;50.924;4.516;2024-02-14T04:15:15;10.57;;;6.35;;
24407;SDS011;12542;50.924;4.516;2024-02-14T04:17:40;13.73;;;7.03;;
24407;SDS011;12542;50.924;4.516;2024-02-14T04:20:06;9.30;;;5.68;;
24407;SDS011;12542;50.924;4.516;2024-02-14T04:22:32;14.80;;;6.78;;
24407;SDS011;12542;50.924;4.516;2024-02-14T04:24:58;11.63;;;6.43;;
24407;SDS011;12542;50.924;4.516;2024-02-14T04:27:24;13.35;;;6.90;;
24407;SDS011;12542;50.924;4.516;2024-02-14T04:29:50;12.60;;;6.70;;
24407;SDS011;12542;50.924;4.516;2024-02-14T04:32:16;15.52;;;6.68;;
24407;SDS011;12542;50.924;4.516;2024-02-14T04:34:42;13.50;;;6.60;;
24407;SDS011;12542;50.924;4.516;2024-02-14T04:37:08;15.18;;;6.97;;
24407;SDS011;12542;50.924;4.516;2024-02-14T04:39:38;15.32;;;7.07;;
24407;SDS011;12542;50.924;4.516;2024-02-14T04:42:04;11.95;;;6.18;;
24407;SDS011;12542;50.924;4.516;2024-02-14T04:44:31;13.60;;;6.93;;
24407;SDS011;12542;50.924;4.516;2024-02-14T04:46:57;11.25;;;7.03;;
24407;SDS011;12542;50.924;4.516;2024-02-14T04:49:24;15.13;;;7.25;;
24407;SDS011;12542;50.924;4.516;2024-02-14T04:51:51;14.15;;;7.68;;
24407;SDS011;12542;50.924;4.516;2024-02-14T04:54:16;14.32;;;7.95;;
24407;SDS011;12542;50.924;4.516;2024-02-14T04:56:42;15.18;;;7.68;;
24407;SDS011;12542;50.924;4.516;2024-02-14T04:59:08;15.32;;;7.80;;
24407;SDS011;12542;50.924;4.516;2024-02-14T05:01:35;17.02;;;7.50;;
24407;SDS011;12542;50.924;4.516;2024-02-14T05:04:01;15.15;;;7.57;;
24407;SDS011;12542;50.924;4.516;2024-02-14T05:06:28;15.95;;;6.97;;
24407;SDS011;12542;50.924;4.516;2024-02-14T05:08:53;16.77;;;8.38;;
24407;SDS011;12542;50.924;4.516;2024-02-14T05:11:19;14.73;;;7.97;;
24407;SDS011;12542;50.924;4.516;2024-02-14T05:13:45;20.13;;;8.80;;
24407;SDS011;12542;50.924;4.516;2024-02-14T05:16:11;19.80;;;7.63;;
24407;SDS011;12542;50.924;4.516;2024-02-14T05:18:37;13.00;;;7.25;;
24407;SDS011;12542;50.924;4.516;2024-02-14T05:21:07;12.77;;;7.40;;
24407;SDS011;12542;50.924;4.516;2024-02-14T05:23:33;16.38;;;8.25;;
24407;SDS011;12542;50.924;4.516;2024-02-14T05:26:00;16.02;;;8.75;;
24407;SDS011;12542;50.924;4.516;2024-02-14T05:28:27;14.13;;;7.40;;
24407;SDS011;12542;50.924;4.516;2024-02-14T05:30:53;15.95;;;7.57;;
24407;SDS011;12542;50.924;4.516;2024-02-14T05:33:20;14.40;;;7.60;;
24407;SDS011;12542;50.924;4.516;2024-02-14T05:35:50;12.65;;;8.05;;
24407;SDS011;12542;50.924;4.516;2024-02-14T05:38:16;14.63;;;8.13;;
24407;SDS011;12542;50.924;4.516;2024-02-14T05:40:44;12.95;;;8.35;;
24407;SDS011;12542;50.924;4.516;2024-02-14T05:43:11;13.60;;;7.85;;
24407;SDS011;12542;50.924;4.516;2024-02-14T05:45:39;17.65;;;7.70;;
24407;SDS011;12542;50.924;4.516;2024-02-14T05:48:04;16.95;;;7.90;;
24407;SDS011;12542;50.924;4.516;2024-02-14T05:50:31;14.63;;;6.80;;
24407;SDS011;12542;50.924;4.516;2024-02-14T05:52:57;14.77;;;8.05;;
24407;SDS011;12542;50.924;4.516;2024-02-14T05:55:23;12.93;;;7.18;;
24407;SDS011;12542;50.924;4.516;2024-02-14T05:57:49;12.43;;;6.22;;
24407;SDS011;12542;50.924;4.516;2024-02-14T06:00:19;13.38;;;7.95;;
24407;SDS011;12542;50.924;4.516;2024-02-14T06:02:46;21.40;;;7.90;;
24407;SDS011;12542;50.924;4.516;2024-02-14T06:05:12;12.93;;;7.57;;
24407;SDS011;12542;50.924;4.516;2024-02-14T06:07:39;12.38;;;7.85;;
24407;SDS011;12542;50.924;4.516;2024-02-14T06:10:06;12.45;;;7.55;;
24407;SDS011;12542;50.924;4.516;2024-02-14T06:12:32;13.57;;;7.35;;
24407;SDS011;12542;50.924;4.516;2024-02-14T06:14:58;14.57;;;7.07;;
24407;SDS011;12542;50.924;4.516;2024-02-14T06:17:24;16.45;;;7.80;;
24407;SDS011;12542;50.924;4.516;2024-02-14T06:19:51;16.52;;;7.57;;
24407;SDS011;12542;50.924;4.516;2024-02-14T06:22:17;18.90;;;8.05;;
24407;SDS011;12542;50.924;4.516;2024-02-14T06:24:43;18.05;;;8.10;;
24407;SDS011;12542;50.924;4.516;2024-02-14T06:27:09;17.90;;;7.85;;
24407;SDS011;12542;50.924;4.516;2024-02-14T06:29:35;17.67;;;8.10;;
24407;SDS011;12542;50.924;4.516;2024-02-14T06:32:01;16.67;;;7.47;;
24407;SDS011;12542;50.924;4.516;2024-02-14T06:34:27;17.15;;;8.05;;
24407;SDS011;12542;50.924;4.516;2024-02-14T06:36:53;16.15;;;7.30;;
24407;SDS011;12542;50.924;4.516;2024-02-14T06:39:19;18.13;;;8.00;;
24407;SDS011;12542;50.924;4.516;2024-02-14T06:41:45;16.38;;;7.93;;
24407;SDS011;12542;50.924;4.516;2024-02-14T06:44:12;16.27;;;7.40;;
24407;SDS011;12542;50.924;4.516;2024-02-14T06:46:38;19.13;;;7.88;;
24407;SDS011;12542;50.924;4.516;2024-02-14T06:49:04;17.25;;;8.02;;
24407;SDS011;12542;50.924;4.516;2024-02-14T06:51:30;14.88;;;7.95;;
24407;SDS011;12542;50.924;4.516;2024-02-14T06:53:55;28.00;;;8.77;;
24407;SDS011;12542;50.924;4.516;2024-02-14T06:56:21;16.67;;;8.02;;
24407;SDS011;12542;50.924;4.516;2024-02-14T06:58:47;13.23;;;7.68;;
24407;SDS011;12542;50.924;4.516;2024-02-14T07:01:18;16.75;;;7.57;;
24407;SDS011;12542;50.924;4.516;2024-02-14T07:03:47;13.60;;;7.72;;
24407;SDS011;12542;50.924;4.516;2024-02-14T07:06:13;15.85;;;8.25;;
24407;SDS011;12542;50.924;4.516;2024-02-14T07:08:42;18.05;;;7.55;;
24407;SDS011;12542;50.924;4.516;2024-02-14T07:11:12;18.55;;;7.55;;
24407;SDS011;12542;50.924;4.516;2024-02-14T07:13:38;18.15;;;7.57;;
24407;SDS011;12542;50.924;4.516;2024-02-14T07:16:03;16.67;;;8.27;;
24407;SDS011;12542;50.924;4.516;2024-02-14T07:18:29;13.07;;;6.85;;
24407;SDS011;12542;50.924;4.516;2024-02-14T07:20:55;15.10;;;7.60;;
24407;SDS011;12542;50.924;4.516;2024-02-14T07:23:21;15.27;;;7.72;;
24407;SDS011;12542;50.924;4.516;2024-02-14T07:25:47;17.80;;;7.72;;
24407;SDS011;12542;50.924;4.516;2024-02-14T07:28:12;20.02;;;7.68;;
24407;SDS011;12542;50.924;4.516;2024-02-14T07:30:38;14.70;;;8.05;;
24407;SDS011;12542;50.924;4.516;2024-02-14T07:33:04;14.77;;;7.35;;
24407;SDS011;12542;50.924;4.516;2024-02-14T07:35:30;11.98;;;7.32;;
24407;SDS011;12542;50.924;4.516;2024-02-14T07:37:55;12.80;;;8.02;;
24407;SDS011;12542;50.924;4.516;2024-02-14T07:40:22;18.17;;;8.23;;
24407;SDS011;12542;50.924;4.516;2024-02-14T07:42:48;12.68;;;7.68;;
24407;SDS011;12542;50.924;4.516;2024-02-14T07:45:14;17.65;;;7.97;;
24407;SDS011;12542;50.924;4.516;2024-02-14T07:47:40;19.80;;;8.82;;
24407;SDS011;12542;50.924;4.516;2024-02-14T07:50:09;12.93;;;6.88;;
24407;SDS011;12542;50.924;4.516;2024-02-14T07:52:35;18.17;;;8.65;;
24407;SDS011;12542;50.924;4.516;2024-02-14T07:55:01;20.75;;;8.48;;
24407;SDS011;12542;50.924;4.516;2024-02-14T07:57:27;13.82;;;7.35;;
24407;SDS011;12542;50.924;4.516;2024-02-14T07:59:52;18.58;;;7.82;;
24407;SDS011;12542;50.924;4.516;2024-02-14T08:02:21;17.13;;;7.90;;
24407;SDS011;12542;50.924;4.516;2024-02-14T08:04:47;20.25;;;8.45;;
24407;SDS011;12542;50.924;4.516;2024-02-14T08:07:13;17.50;;;7.60;;
24407;SDS011;12542;50.924;4.516;2024-02-14T08:09:39;15.73;;;8.60;;
24407;SDS011;12542;50.924;4.516;2024-02-14T08:12:05;18.08;;;7.18;;
24407;SDS011;12542;50.924;4.516;2024-02-14T08:14:31;15.35;;;6.40;;
24407;SDS011;12542;50.924;4.516;2024-02-14T08:16:57;16.40;;;7.55;;
24407;SDS011;12542;50.924;4.516;2024-02-14T08:19:23;15.93;;;7.10;;
24407;SDS011;12542;50.924;4.516;2024-02-14T08:21:49;14.95;;;7.50;;
24407;SDS011;12542;50.924;4.516;2024-02-14T08:24:14;17.10;;;7.68;;
24407;SDS011;12542;50.924;4.516;2024-02-14T08:26:40;17.95;;;8.18;;
24407;SDS011;12542;50.924;4.516;2024-02-14T08:29:06;13.40;;;7.32;;
24407;SDS011;12542;50.924;4.516;2024-02-14T08:31:32;15.43;;;7.25;;
24407;SDS011;12542;50.924;4.516;2024-02-14T08:33:57;15.65;;;8.00;;
24407;SDS011;12542;50.924;4.516;2024-02-14T08:36:24;13.57;;;7.68;;
24407;SDS011;12542;50.924;4.516;2024-02-14T08:38:50;15.13;;;7.70;;
24407;SDS011;12542;50.924;4.516;2024-02-14T08:41:15;16.42;;;8.23;;
24407;SDS011;12542;50.924;4.516;2024-02-14T08:43:43;12.57;;;7.25;;
24407;SDS011;12542;50.924;4.516;2024-02-14T08:46:09;13.77;;;7.60;;
24407;SDS011;12542;50.924;4.516;2024-02-14T08:48:36;17.65;;;7.95;;
24407;SDS011;12542;50.924;4.516;2024-02-14T08:51:07;15.90;;;7.93;;
24407;SDS011;12542;50.924;4.516;2024-02-14T08:53:34;17.75;;;7.78;;
24407;SDS011;12542;50.924;4.516;2024-02-14T08:56:03;14.80;;;8.07;;
24407;SDS011;12542;50.924;4.516;2024-02-14T08:58:32;15.27;;;8.18;;
24407;SDS011;12542;50.924;4.516;2024-02-14T09:01:00;16.85;;;8.27;;
24407;SDS011;12542;50.924;4.516;2024-02-14T09:03:25;15.55;;;8.98;;
24407;SDS011;12542;50.924;4.516;2024-02-14T09:05:51;21.65;;;8.80;;
24407;SDS011;12542;50.924;4.516;2024-02-14T09:08:19;14.77;;;8.55;;
24407;SDS011;12542;50.924;4.516;2024-02-14T09:10:45;13.63;;;8.52;;
24407;SDS011;12542;50.924;4.516;2024-02-14T09:13:11;18.08;;;9.75;;
24407;SDS011;12542;50.924;4.516;2024-02-14T09:15:37;25.15;;;9.25;;
24407;SDS011;12542;50.924;4.516;2024-02-14T09:18:05;18.30;;;9.85;;
24407;SDS011;12542;50.924;4.516;2024-02-14T09:20:33;16.98;;;9.05;;
24407;SDS011;12542;50.924;4.516;2024-02-14T09:22:59;15.85;;;8.63;;
24407;SDS011;12542;50.924;4.516;2024-02-14T09:25:25;15.10;;;8.48;;
24407;SDS011;12542;50.924;4.516;2024-02-14T09:27:51;19.42;;;10.48;;
24407;SDS011;12542;50.924;4.516;2024-02-14T09:30:18;15.93;;;9.27;;
24407;SDS011;12542;50.924;4.516;2024-02-14T09:32:44;15.57;;;8.70;;
24407;SDS011;12542;50.924;4.516;2024-02-14T09:35:10;14.70;;;8.35;;
24407;SDS011;12542;50.924;4.516;2024-02-14T09:37:36;14.63;;;8.77;;
24407;SDS011;12542;50.924;4.516;2024-02-14T09:40:07;17.25;;;9.50;;
24407;SDS011;12542;50.924;4.516;2024-02-14T09:42:38;19.92;;;9.45;;
24407;SDS011;12542;50.924;4.516;2024-02-14T09:45:08;13.70;;;8.55;;
24407;SDS011;12542;50.924;4.516;2024-02-14T09:47:34;18.17;;;8.52;;
24407;SDS011;12542;50.924;4.516;2024-02-14T09:50:01;13.55;;;8.45;;
24407;SDS011;12542;50.924;4.516;2024-02-14T09:52:32;15.82;;;8.85;;
24407;SDS011;12542;50.924;4.516;2024-02-14T09:54:58;15.40;;;8.68;;
24407;SDS011;12542;50.924;4.516;2024-02-14T09:57:24;13.38;;;8.00;;
24407;SDS011;12542;50.924;4.516;2024-02-14T09:59:51;10.93;;;7.43;;
24407;SDS011;12542;50.924;4.516;2024-02-14T10:02:19;12.77;;;7.50;;
24407;SDS011;12542;50.924;4.516;2024-02-14T10:04:45;12.45;;;7.47;;
24407;SDS011;12542;50.924;4.516;2024-02-14T10:07:13;12.80;;;6.72;;
24407;SDS011;12542;50.924;4.516;2024-02-14T10:09:41;10.57;;;5.47;;
24407;SDS011;12542;50.924;4.516;2024-02-14T10:12:08;10.35;;;6.80;;
24407;SDS011;12542;50.924;4.516;2024-02-14T10:14:34;14.38;;;7.25;;
24407;SDS011;12542;50.924;4.516;2024-02-14T10:17:04;10.98;;;6.45;;
24407;SDS011;12542;50.924;4.516;2024-02-14T10:19:30;9.38;;;5.20;;
24407;SDS011;12542;50.924;4.516;2024-02-14T10:21:59;9.18;;;5.60;;
24407;SDS011;12542;50.924;4.516;2024-02-14T10:24:27;10.20;;;5.38;;
24407;SDS011;12542;50.924;4.516;2024-02-14T10:26:53;13.10;;;6.10;;
24407;SDS011;12542;50.924;4.516;2024-02-14T10:29:20;10.13;;;5.45;;
24407;SDS011;12542;50.924;4.516;2024-02-14T10:31:46;8.98;;;5.80;;
24407;SDS011;12542;50.924;4.516;2024-02-14T10:34:12;7.07;;;4.55;;
24407;SDS011;12542;50.924;4.516;2024-02-14T10:36:37;6.53;;;4.03;;
24407;SDS011;12542;50.924;4.516;2024-02-14T10:39:05;11.07;;;5.28;;
24407;SDS011;12542;50.924;4.516;2024-02-14T10:41:33;8.50;;;4.07;;
24407;SDS011;12542;50.924;4.516;2024-02-14T10:44:03;7.00;;;3.83;;
24407;SDS011;12542;50.924;4.516;2024-02-14T10:46:31;7.45;;;3.60;;
24407;SDS011;12542;50.924;4.516;2024-02-14T10:49:02;6.15;;;2.78;;
24407;SDS011;12542;50.924;4.516;2024-02-14T10:51:33;7.20;;;3.03;;
24407;SDS011;12542;50.924;4.516;2024-02-14T10:54:04;6.53;;;2.83;;
24407;SDS011;12542;50.924;4.516;2024-02-14T10:56:37;6.18;;;2.80;;
24407;SDS011;12542;50.924;4.516;2024-02-14T10:59:05;5.85;;;2.90;;
24407;SDS011;12542;50.924;4.516;2024-02-14T11:01:32;6.40;;;2.83;;
24407;SDS011;12542;50.924;4.516;2024-02-14T11:04:00;4.22;;;2.70;;
24407;SDS011;12542;50.924;4.516;2024-02-14T11:06:27;5.03;;;2.85;;
24407;SDS011;12542;50.924;4.516;2024-02-14T11:09:02;8.52;;;3.10;;
24407;SDS011;12542;50.924;4.516;2024-02-14T11:11:32;6.15;;;2.80;;
24407;SDS011;12542;50.924;4.516;2024-02-14T11:13:58;7.05;;;2.90;;
24407;SDS011;12542;50.924;4.516;2024-02-14T11:16:30;8.40;;;3.08;;
24407;SDS011;12542;50.924;4.516;2024-02-14T11:21:45;4.57;;;2.30;;
24407;SDS011;12542;50.924;4.516;2024-02-14T11:24:12;3.40;;;2.20;;
24407;SDS011;12542;50.924;4.516;2024-02-14T11:26:48;3.53;;;2.05;;
24407;SDS011;12542;50.924;4.516;2024-02-14T11:29:17;4.35;;;2.47;;
24407;SDS011;12542;50.924;4.516;2024-02-14T11:31:44;3.95;;;1.90;;
24407;SDS011;12542;50.924;4.516;2024-02-14T11:34:13;3.60;;;2.08;;
24407;SDS011;12542;50.924;4.516;2024-02-14T11:36:42;5.05;;;2.33;;
24407;SDS011;12542;50.924;4.516;2024-02-14T11:39:09;4.28;;;2.28;;
24407;SDS011;12542;50.924;4.516;2024-02-14T11:41:37;4.38;;;2.45;;
24407;SDS011;12542;50.924;4.516;2024-02-14T11:44:03;4.93;;;2.42;;
24407;SDS011;12542;50.924;4.516;2024-02-14T11:46:33;6.00;;;3.30;;
24407;SDS011;12542;50.924;4.516;2024-02-14T11:49:00;10.82;;;3.05;;
24407;SDS011;12542;50.924;4.516;2024-02-14T11:51:28;5.25;;;2.03;;
24407;SDS011;12542;50.924;4.516;2024-02-14T11:53:57;8.27;;;3.95;;
24407;SDS011;12542;50.924;4.516;2024-02-14T11:56:36;4.93;;;2.85;;
24407;SDS011;12542;50.924;4.516;2024-02-14T11:59:04;4.57;;;2.63;;
24407;SDS011;12542;50.924;4.516;2024-02-14T12:01:31;9.52;;;3.53;;
24407;SDS011;12542;50.924;4.516;2024-02-14T12:04:01;6.50;;;3.45;;
24407;SDS011;12542;50.924;4.516;2024-02-14T12:06:29;10.95;;;3.78;;
24407;SDS011;12542;50.924;4.516;2024-02-14T12:08:57;9.40;;;4.15;;
24407;SDS011;12542;50.924;4.516;2024-02-14T12:11:30;7.85;;;3.75;;
24407;SDS011;12542;50.924;4.516;2024-02-14T12:14:00;7.78;;;4.20;;
24407;SDS011;12542;50.924;4.516;2024-02-14T12:16:27;8.15;;;4.05;;
24407;SDS011;12542;50.924;4.516;2024-02-14T12:21:48;10.68;;;4.55;;
24407;SDS011;12542;50.924;4.516;2024-02-14T12:24:14;10.35;;;4.10;;
24407;SDS011;12542;50.924;4.516;2024-02-14T12:26:40;9.45;;;3.80;;
24407;SDS011;12542;50.924;4.516;2024-02-14T12:29:07;8.32;;;3.88;;
24407;SDS011;12542;50.924;4.516;2024-02-14T12:31:39;8.18;;;3.50;;
24407;SDS011;12542;50.924;4.516;2024-02-14T12:34:05;6.43;;;3.70;;
24407;SDS011;12542;50.924;4.516;2024-02-14T12:36:31;7.07;;;3.75;;
24407;SDS011;12542;50.924;4.516;2024-02-14T12:39:00;8.82;;;4.07;;
24407;SDS011;12542;50.924;4.516;2024-02-14T12:41:29;12.60;;;4.68;;
24407;SDS011;12542;50.924;4.516;2024-02-14T12:43:56;10.82;;;4.60;;
24407;SDS011;12542;50.924;4.516;2024-02-14T12:46:23;9.75;;;4.03;;
24407;SDS011;12542;50.924;4.516;2024-02-14T12:48:49;11.65;;;4.63;;
24407;SDS011;12542;50.924;4.516;2024-02-14T12:51:14;12.20;;;4.80;;
24407;SDS011;12542;50.924;4.516;2024-02-14T12:53:40;10.27;;;4.53;;
24407;SDS011;12542;50.924;4.516;2024-02-14T12:56:09;13.80;;;5.47;;
24407;SDS011;12542;50.924;4.516;2024-02-14T12:58:35;10.18;;;4.80;;
24407;SDS011;12542;50.924;4.516;2024-02-14T13:01:01;9.50;;;4.07;;
24407;SDS011;12542;50.924;4.516;2024-02-14T13:03:30;9.80;;;4.45;;
24407;SDS011;12542;50.924;4.516;2024-02-14T13:05:58;11.70;;;4.93;;
24407;SDS011;12542;50.924;4.516;2024-02-14T13:08:24;9.07;;;4.93;;
24407;SDS011;12542;50.924;4.516;2024-02-14T13:10:50;9.80;;;5.15;;
24407;SDS011;12542;50.924;4.516;2024-02-14T13:13:15;7.68;;;4.50;;
24407;SDS011;12542;50.924;4.516;2024-02-14T13:15:41;15.63;;;5.18;;
24407;SDS011;12542;50.924;4.516;2024-02-14T13:18:09;9.35;;;4.50;;
24407;SDS011;12542;50.924;4.516;2024-02-14T13:20:35;9.55;;;4.63;;
24407;SDS011;12542;50.924;4.516;2024-02-14T13:23:02;9.63;;;4.10;;
24407;SDS011;12542;50.924;4.516;2024-02-14T13:25:28;11.15;;;3.78;;
24407;SDS011;12542;50.924;4.516;2024-02-14T13:27:54;7.57;;;3.58;;
24407;SDS011;12542;50.924;4.516;2024-02-14T13:30:20;8.77;;;3.95;;
24407;SDS011;12542;50.924;4.516;2024-02-14T13:32:47;10.65;;;3.40;;
24407;SDS011;12542;50.924;4.516;2024-02-14T13:35:13;6.13;;;3.38;;
24407;SDS011;12542;50.924;4.516;2024-02-14T13:37:39;8.05;;;3.17;;
24407;SDS011;12542;50.924;4.516;2024-02-14T13:40:07;7.30;;;3.65;;
24407;SDS011;12542;50.924;4.516;2024-02-14T13:42:36;5.57;;;2.90;;
24407;SDS011;12542;50.924;4.516;2024-02-14T13:45:03;10.93;;;3.40;;
24407;SDS011;12542;50.924;4.516;2024-02-14T13:47:37;7.33;;;2.90;;
24407;SDS011;12542;50.924;4.516;2024-02-14T13:50:07;6.55;;;2.75;;
24407;SDS011;12542;50.924;4.516;2024-02-14T13:52:34;5.55;;;2.67;;
24407;SDS011;12542;50.924;4.516;2024-02-14T13:55:04;7.68;;;2.90;;
24407;SDS011;12542;50.924;4.516;2024-02-14T13:57:38;7.40;;;2.75;;
24407;SDS011;12542;50.924;4.516;2024-02-14T14:00:04;7.25;;;3.03;;
24407;SDS011;12542;50.924;4.516;2024-02-14T14:02:36;9.73;;;3.10;;
24407;SDS011;12542;50.924;4.516;2024-02-14T14:05:09;4.85;;;2.80;;
24407;SDS011;12542;50.924;4.516;2024-02-14T14:07:38;6.63;;;3.05;;
24407;SDS011;12542;50.924;4.516;2024-02-14T14:10:05;5.30;;;3.13;;
24407;SDS011;12542;50.924;4.516;2024-02-14T14:12:31;6.70;;;2.67;;
24407;SDS011;12542;50.924;4.516;2024-02-14T14:14:57;5.47;;;1.98;;
24407;SDS011;12542;50.924;4.516;2024-02-14T14:17:23;5.43;;;2.33;;
24407;SDS011;12542;50.924;4.516;2024-02-14T14:19:49;5.28;;;2.40;;
24407;SDS011;12542;50.924;4.516;2024-02-14T14:22:15;3.92;;;2.55;;
24407;SDS011;12542;50.924;4.516;2024-02-14T14:24:41;6.80;;;2.60;;
24407;SDS011;12542;50.924;4.516;2024-02-14T14:27:07;7.05;;;2.70;;
24407;SDS011;12542;50.924;4.516;2024-02-14T14:29:38;8.98;;;2.47;;
24407;SDS011;12542;50.924;4.516;2024-02-14T14:32:07;7.30;;;2.38;;
24407;SDS011;12542;50.924;4.516;2024-02-14T14:34:34;5.25;;;2.20;;
24407;SDS011;12542;50.924;4.516;2024-02-14T14:36:59;7.38;;;2.42;;
24407;SDS011;12542;50.924;4.516;2024-02-14T14:39:26;5.18;;;2.38;;
24407;SDS011;12542;50.924;4.516;2024-02-14T14:41:52;5.57;;;2.08;;
24407;SDS011;12542;50.924;4.516;2024-02-14T14:44:19;4.28;;;2.20;;